sensor_id;sensor_type;location;lat;lon;timestamp;P1;durP1;ratioP1;P2;durP2;ratioP2
4290;SDS011;2159;50.906;7.152;2022-12-18T00:01:58;12.40;;;7.40;;
4290;SDS011;2159;50.906;7.152;2022-12-18T00:04:26;10.70;;;7.10;;
4290;SDS011;2159;50.906;7.152;2022-12-18T00:06:54;9.87;;;6.97;;
4290;SDS011;2159;50.906;7.152;2022-12-18T00:09:21;10.53;;;6.87;;
4290;SDS011;2159;50.906;7.152;2022-12-18T00:11:50;12.60;;;6.70;;
4290;SDS011;2159;50.906;7.152;2022-12-18T00:14:19;13.27;;;7.67;;
4290;SDS011;2159;50.906;7.152;2022-12-18T00:16:46;13.70;;;7.80;;
4290;SDS011;2159;50.906;7.152;2022-12-18T00:19:14;12.43;;;7.27;;
4290;SDS011;2159;50.906;7.152;2022-12-18T00:21:42;11.73;;;7.37;;
4290;SDS011;2159;50.906;7.152;2022-12-18T00:24:10;15.03;;;7.80;;
4290;SDS011;2159;50.906;7.152;2022-12-18T00:26:38;13.47;;;7.57;;
4290;SDS011;2159;50.906;7.152;2022-12-18T00:29:06;11.17;;;7.50;;
4290;SDS011;2159;50.906;7.152;2022-12-18T00:31:36;13.70;;;7.70;;
4290;SDS011;2159;50.906;7.152;2022-12-18T00:34:04;9.90;;;6.40;;
4290;SDS011;2159;50.906;7.152;2022-12-18T00:36:32;10.33;;;7.00;;
4290;SDS011;2159;50.906;7.152;2022-12-18T00:39:01;11.40;;;7.00;;
4290;SDS011;2159;50.906;7.152;2022-12-18T00:41:29;12.40;;;7.33;;
4290;SDS011;2159;50.906;7.152;2022-12-18T00:44:14;11.33;;;6.70;;
4290;SDS011;2159;50.906;7.152;2022-12-18T00:46:44;12.20;;;7.57;;
4290;SDS011;2159;50.906;7.152;2022-12-18T00:49:11;14.30;;;7.83;;
4290;SDS011;2159;50.906;7.152;2022-12-18T00:51:39;13.83;;;8.20;;
4290;SDS011;2159;50.906;7.152;2022-12-18T00:54:06;15.20;;;8.50;;
4290;SDS011;2159;50.906;7.152;2022-12-18T00:56:34;16.40;;;9.10;;
4290;SDS011;2159;50.906;7.152;2022-12-18T00:59:10;14.57;;;7.63;;
4290;SDS011;2159;50.906;7.152;2022-12-18T01:01:38;15.50;;;7.50;;
4290;SDS011;2159;50.906;7.152;2022-12-18T01:04:07;10.80;;;7.00;;
4290;SDS011;2159;50.906;7.152;2022-12-18T01:06:34;9.70;;;6.50;;
4290;SDS011;2159;50.906;7.152;2022-12-18T01:09:02;12.50;;;6.70;;
4290;SDS011;2159;50.906;7.152;2022-12-18T01:11:30;10.07;;;6.50;;
4290;SDS011;2159;50.906;7.152;2022-12-18T01:13:57;10.50;;;6.60;;
4290;SDS011;2159;50.906;7.152;2022-12-18T01:16:28;12.30;;;6.50;;
4290;SDS011;2159;50.906;7.152;2022-12-18T01:18:56;11.13;;;6.90;;
4290;SDS011;2159;50.906;7.152;2022-12-18T01:21:25;12.33;;;7.13;;
4290;SDS011;2159;50.906;7.152;2022-12-18T01:23:52;11.30;;;6.70;;
4290;SDS011;2159;50.906;7.152;2022-12-18T01:26:21;9.23;;;6.10;;
4290;SDS011;2159;50.906;7.152;2022-12-18T01:28:48;9.30;;;6.60;;
4290;SDS011;2159;50.906;7.152;2022-12-18T01:31:17;11.07;;;5.90;;
4290;SDS011;2159;50.906;7.152;2022-12-18T01:33:44;10.10;;;6.53;;
4290;SDS011;2159;50.906;7.152;2022-12-18T01:36:16;9.37;;;6.00;;
4290;SDS011;2159;50.906;7.152;2022-12-18T01:38:45;10.00;;;6.40;;
4290;SDS011;2159;50.906;7.152;2022-12-18T01:41:13;9.50;;;6.50;;
4290;SDS011;2159;50.906;7.152;2022-12-18T01:43:45;13.67;;;7.30;;
4290;SDS011;2159;50.906;7.152;2022-12-18T01:46:13;10.77;;;6.50;;
4290;SDS011;2159;50.906;7.152;2022-12-18T01:48:41;10.20;;;6.30;;
4290;SDS011;2159;50.906;7.152;2022-12-18T01:51:09;10.87;;;6.63;;
4290;SDS011;2159;50.906;7.152;2022-12-18T01:53:37;11.57;;;6.67;;
4290;SDS011;2159;50.906;7.152;2022-12-18T01:56:07;8.83;;;5.97;;
4290;SDS011;2159;50.906;7.152;2022-12-18T01:58:38;11.57;;;7.20;;
4290;SDS011;2159;50.906;7.152;2022-12-18T02:01:06;11.33;;;7.00;;
4290;SDS011;2159;50.906;7.152;2022-12-18T02:03:34;11.77;;;6.60;;
4290;SDS011;2159;50.906;7.152;2022-12-18T02:06:05;11.53;;;5.90;;
4290;SDS011;2159;50.906;7.152;2022-12-18T02:08:35;8.57;;;6.13;;
4290;SDS011;2159;50.906;7.152;2022-12-18T02:11:05;10.40;;;6.10;;
4290;SDS011;2159;50.906;7.152;2022-12-18T02:13:38;10.93;;;6.47;;
4290;SDS011;2159;50.906;7.152;2022-12-18T02:16:09;13.03;;;7.00;;
4290;SDS011;2159;50.906;7.152;2022-12-18T02:18:41;9.73;;;6.40;;
4290;SDS011;2159;50.906;7.152;2022-12-18T02:21:12;12.50;;;7.07;;
4290;SDS011;2159;50.906;7.152;2022-12-18T02:23:47;11.43;;;7.10;;
4290;SDS011;2159;50.906;7.152;2022-12-18T02:26:20;10.20;;;6.70;;
4290;SDS011;2159;50.906;7.152;2022-12-18T02:28:50;10.80;;;6.50;;
4290;SDS011;2159;50.906;7.152;2022-12-18T02:31:20;9.63;;;6.40;;
4290;SDS011;2159;50.906;7.152;2022-12-18T02:33:51;9.90;;;6.70;;
4290;SDS011;2159;50.906;7.152;2022-12-18T02:36:19;11.67;;;6.50;;
4290;SDS011;2159;50.906;7.152;2022-12-18T02:38:47;9.13;;;6.20;;
4290;SDS011;2159;50.906;7.152;2022-12-18T02:41:16;7.57;;;5.37;;
4290;SDS011;2159;50.906;7.152;2022-12-18T02:43:47;8.17;;;5.40;;
4290;SDS011;2159;50.906;7.152;2022-12-18T02:46:23;10.33;;;5.60;;
4290;SDS011;2159;50.906;7.152;2022-12-18T02:48:52;8.77;;;5.93;;
4290;SDS011;2159;50.906;7.152;2022-12-18T02:51:23;8.37;;;5.40;;
4290;SDS011;2159;50.906;7.152;2022-12-18T02:53:57;12.93;;;5.73;;
4290;SDS011;2159;50.906;7.152;2022-12-18T02:56:26;10.47;;;5.87;;
4290;SDS011;2159;50.906;7.152;2022-12-18T02:58:58;8.50;;;5.30;;
4290;SDS011;2159;50.906;7.152;2022-12-18T03:01:28;9.30;;;5.63;;
4290;SDS011;2159;50.906;7.152;2022-12-18T03:03:59;9.60;;;5.93;;
4290;SDS011;2159;50.906;7.152;2022-12-18T03:06:29;11.33;;;5.60;;
4290;SDS011;2159;50.906;7.152;2022-12-18T03:08:58;9.27;;;5.43;;
4290;SDS011;2159;50.906;7.152;2022-12-18T03:11:26;9.60;;;5.60;;
4290;SDS011;2159;50.906;7.152;2022-12-18T03:14:11;7.80;;;5.50;;
4290;SDS011;2159;50.906;7.152;2022-12-18T03:16:40;9.03;;;5.23;;
4290;SDS011;2159;50.906;7.152;2022-12-18T03:19:08;10.43;;;5.23;;
4290;SDS011;2159;50.906;7.152;2022-12-18T03:21:40;10.50;;;5.73;;
4290;SDS011;2159;50.906;7.152;2022-12-18T03:24:10;8.77;;;5.17;;
4290;SDS011;2159;50.906;7.152;2022-12-18T03:26:39;8.57;;;5.33;;
4290;SDS011;2159;50.906;7.152;2022-12-18T03:29:08;8.70;;;5.67;;
4290;SDS011;2159;50.906;7.152;2022-12-18T03:31:39;9.00;;;5.80;;
4290;SDS011;2159;50.906;7.152;2022-12-18T03:34:09;7.90;;;5.37;;
4290;SDS011;2159;50.906;7.152;2022-12-18T03:36:37;8.50;;;5.00;;
4290;SDS011;2159;50.906;7.152;2022-12-18T03:39:04;6.83;;;5.07;;
4290;SDS011;2159;50.906;7.152;2022-12-18T03:41:33;8.27;;;5.60;;
4290;SDS011;2159;50.906;7.152;2022-12-18T03:44:03;8.43;;;5.30;;
4290;SDS011;2159;50.906;7.152;2022-12-18T03:46:37;7.10;;;5.40;;
4290;SDS011;2159;50.906;7.152;2022-12-18T03:49:09;6.87;;;5.10;;
4290;SDS011;2159;50.906;7.152;2022-12-18T03:51:39;8.07;;;5.43;;
4290;SDS011;2159;50.906;7.152;2022-12-18T03:54:09;6.97;;;5.33;;
4290;SDS011;2159;50.906;7.152;2022-12-18T03:56:37;6.70;;;5.20;;
4290;SDS011;2159;50.906;7.152;2022-12-18T03:59:06;7.03;;;5.00;;
4290;SDS011;2159;50.906;7.152;2022-12-18T04:01:35;9.33;;;4.97;;
4290;SDS011;2159;50.906;7.152;2022-12-18T04:04:04;8.17;;;4.87;;
4290;SDS011;2159;50.906;7.152;2022-12-18T04:06:34;7.43;;;5.60;;
4290;SDS011;2159;50.906;7.152;2022-12-18T04:09:02;8.10;;;5.10;;
4290;SDS011;2159;50.906;7.152;2022-12-18T04:11:30;7.73;;;5.43;;
4290;SDS011;2159;50.906;7.152;2022-12-18T04:13:57;7.00;;;5.13;;
4290;SDS011;2159;50.906;7.152;2022-12-18T04:16:29;7.87;;;5.10;;
4290;SDS011;2159;50.906;7.152;2022-12-18T04:18:57;8.40;;;4.93;;
4290;SDS011;2159;50.906;7.152;2022-12-18T04:21:25;9.10;;;5.40;;
4290;SDS011;2159;50.906;7.152;2022-12-18T04:23:54;6.50;;;4.93;;
4290;SDS011;2159;50.906;7.152;2022-12-18T04:26:21;6.87;;;5.43;;
4290;SDS011;2159;50.906;7.152;2022-12-18T04:28:49;7.50;;;5.27;;
4290;SDS011;2159;50.906;7.152;2022-12-18T04:31:16;8.20;;;5.27;;
4290;SDS011;2159;50.906;7.152;2022-12-18T04:33:44;7.17;;;5.50;;
4290;SDS011;2159;50.906;7.152;2022-12-18T04:36:12;8.73;;;6.00;;
4290;SDS011;2159;50.906;7.152;2022-12-18T04:38:39;6.77;;;5.00;;
4290;SDS011;2159;50.906;7.152;2022-12-18T04:41:08;8.30;;;5.50;;
4290;SDS011;2159;50.906;7.152;2022-12-18T04:43:36;7.60;;;5.30;;
4290;SDS011;2159;50.906;7.152;2022-12-18T04:46:04;8.30;;;5.93;;
4290;SDS011;2159;50.906;7.152;2022-12-18T04:48:32;7.37;;;5.30;;
4290;SDS011;2159;50.906;7.152;2022-12-18T04:50:59;8.27;;;5.77;;
4290;SDS011;2159;50.906;7.152;2022-12-18T04:53:27;8.60;;;5.90;;
4290;SDS011;2159;50.906;7.152;2022-12-18T04:56:02;9.83;;;6.07;;
4290;SDS011;2159;50.906;7.152;2022-12-18T04:58:31;10.67;;;5.97;;
4290;SDS011;2159;50.906;7.152;2022-12-18T05:00:58;7.60;;;5.23;;
4290;SDS011;2159;50.906;7.152;2022-12-18T05:03:26;7.80;;;5.33;;
4290;SDS011;2159;50.906;7.152;2022-12-18T05:05:53;8.63;;;5.40;;
4290;SDS011;2159;50.906;7.152;2022-12-18T05:08:21;7.70;;;5.30;;
4290;SDS011;2159;50.906;7.152;2022-12-18T05:10:48;10.70;;;5.10;;
4290;SDS011;2159;50.906;7.152;2022-12-18T05:13:16;6.70;;;4.97;;
4290;SDS011;2159;50.906;7.152;2022-12-18T05:15:50;8.60;;;5.67;;
4290;SDS011;2159;50.906;7.152;2022-12-18T05:18:18;8.40;;;5.17;;
4290;SDS011;2159;50.906;7.152;2022-12-18T05:20:46;7.97;;;5.40;;
4290;SDS011;2159;50.906;7.152;2022-12-18T05:23:13;8.03;;;5.23;;
4290;SDS011;2159;50.906;7.152;2022-12-18T05:25:41;10.70;;;6.23;;
4290;SDS011;2159;50.906;7.152;2022-12-18T05:28:08;10.90;;;5.60;;
4290;SDS011;2159;50.906;7.152;2022-12-18T05:30:36;9.53;;;6.20;;
4290;SDS011;2159;50.906;7.152;2022-12-18T05:33:05;8.87;;;5.67;;
4290;SDS011;2159;50.906;7.152;2022-12-18T05:35:32;9.80;;;5.83;;
4290;SDS011;2159;50.906;7.152;2022-12-18T05:38:00;9.33;;;5.70;;
4290;SDS011;2159;50.906;7.152;2022-12-18T05:40:27;9.67;;;6.20;;
4290;SDS011;2159;50.906;7.152;2022-12-18T05:42:56;7.80;;;5.70;;
4290;SDS011;2159;50.906;7.152;2022-12-18T05:45:23;9.00;;;6.03;;
4290;SDS011;2159;50.906;7.152;2022-12-18T05:47:51;8.97;;;6.03;;
4290;SDS011;2159;50.906;7.152;2022-12-18T05:50:20;8.97;;;6.10;;
4290;SDS011;2159;50.906;7.152;2022-12-18T05:52:47;8.50;;;5.60;;
4290;SDS011;2159;50.906;7.152;2022-12-18T05:55:15;9.10;;;5.83;;
4290;SDS011;2159;50.906;7.152;2022-12-18T05:57:42;9.87;;;6.13;;
4290;SDS011;2159;50.906;7.152;2022-12-18T06:00:11;11.17;;;6.00;;
4290;SDS011;2159;50.906;7.152;2022-12-18T06:02:39;8.80;;;5.70;;
4290;SDS011;2159;50.906;7.152;2022-12-18T06:05:07;9.83;;;6.33;;
4290;SDS011;2159;50.906;7.152;2022-12-18T06:07:36;9.23;;;6.37;;
4290;SDS011;2159;50.906;7.152;2022-12-18T06:10:04;8.70;;;5.87;;
4290;SDS011;2159;50.906;7.152;2022-12-18T06:12:32;7.97;;;6.03;;
4290;SDS011;2159;50.906;7.152;2022-12-18T06:15:00;9.27;;;6.40;;
4290;SDS011;2159;50.906;7.152;2022-12-18T06:17:27;9.30;;;5.83;;
4290;SDS011;2159;50.906;7.152;2022-12-18T06:19:56;10.00;;;6.30;;
4290;SDS011;2159;50.906;7.152;2022-12-18T06:22:23;10.17;;;6.00;;
4290;SDS011;2159;50.906;7.152;2022-12-18T06:24:52;9.53;;;5.70;;
4290;SDS011;2159;50.906;7.152;2022-12-18T06:27:20;7.83;;;5.40;;
4290;SDS011;2159;50.906;7.152;2022-12-18T06:29:47;8.63;;;5.90;;
4290;SDS011;2159;50.906;7.152;2022-12-18T06:32:14;9.93;;;6.50;;
4290;SDS011;2159;50.906;7.152;2022-12-18T06:34:42;8.63;;;6.47;;
4290;SDS011;2159;50.906;7.152;2022-12-18T06:37:10;8.70;;;5.73;;
4290;SDS011;2159;50.906;7.152;2022-12-18T06:39:37;9.10;;;5.70;;
4290;SDS011;2159;50.906;7.152;2022-12-18T06:42:07;9.40;;;6.10;;
4290;SDS011;2159;50.906;7.152;2022-12-18T06:44:34;9.17;;;6.13;;
4290;SDS011;2159;50.906;7.152;2022-12-18T06:47:01;9.77;;;6.10;;
4290;SDS011;2159;50.906;7.152;2022-12-18T06:49:29;12.27;;;6.47;;
4290;SDS011;2159;50.906;7.152;2022-12-18T06:51:58;10.67;;;6.60;;
4290;SDS011;2159;50.906;7.152;2022-12-18T06:54:26;11.10;;;6.60;;
4290;SDS011;2159;50.906;7.152;2022-12-18T06:56:53;10.37;;;6.40;;
4290;SDS011;2159;50.906;7.152;2022-12-18T06:59:25;16.30;;;9.90;;
4290;SDS011;2159;50.906;7.152;2022-12-18T07:01:53;18.57;;;10.83;;
4290;SDS011;2159;50.906;7.152;2022-12-18T07:04:20;13.57;;;7.40;;
4290;SDS011;2159;50.906;7.152;2022-12-18T07:06:48;11.93;;;7.37;;
4290;SDS011;2159;50.906;7.152;2022-12-18T07:09:15;12.57;;;7.33;;
4290;SDS011;2159;50.906;7.152;2022-12-18T07:11:43;9.67;;;6.03;;
4290;SDS011;2159;50.906;7.152;2022-12-18T07:14:10;10.30;;;6.20;;
4290;SDS011;2159;50.906;7.152;2022-12-18T07:16:39;10.60;;;6.33;;
4290;SDS011;2159;50.906;7.152;2022-12-18T07:19:07;8.07;;;5.87;;
4290;SDS011;2159;50.906;7.152;2022-12-18T07:21:34;9.13;;;5.90;;
4290;SDS011;2159;50.906;7.152;2022-12-18T07:24:02;10.20;;;6.03;;
4290;SDS011;2159;50.906;7.152;2022-12-18T07:26:29;9.20;;;6.37;;
4290;SDS011;2159;50.906;7.152;2022-12-18T07:28:57;12.87;;;6.50;;
4290;SDS011;2159;50.906;7.152;2022-12-18T07:31:25;12.17;;;6.70;;
4290;SDS011;2159;50.906;7.152;2022-12-18T07:33:54;12.30;;;6.73;;
4290;SDS011;2159;50.906;7.152;2022-12-18T07:36:22;9.43;;;5.90;;
4290;SDS011;2159;50.906;7.152;2022-12-18T07:38:49;12.00;;;6.53;;
4290;SDS011;2159;50.906;7.152;2022-12-18T07:41:18;9.70;;;6.67;;
4290;SDS011;2159;50.906;7.152;2022-12-18T07:43:45;10.43;;;6.50;;
4290;SDS011;2159;50.906;7.152;2022-12-18T07:46:13;11.67;;;7.13;;
4290;SDS011;2159;50.906;7.152;2022-12-18T07:48:41;10.87;;;6.80;;
4290;SDS011;2159;50.906;7.152;2022-12-18T07:51:16;9.77;;;6.30;;
4290;SDS011;2159;50.906;7.152;2022-12-18T07:53:44;10.20;;;6.73;;
4290;SDS011;2159;50.906;7.152;2022-12-18T07:56:14;9.37;;;6.23;;
4290;SDS011;2159;50.906;7.152;2022-12-18T07:58:57;10.90;;;6.50;;
4290;SDS011;2159;50.906;7.152;2022-12-18T08:01:25;12.57;;;7.13;;
4290;SDS011;2159;50.906;7.152;2022-12-18T08:03:53;10.80;;;6.50;;
4290;SDS011;2159;50.906;7.152;2022-12-18T08:06:22;10.87;;;6.37;;
4290;SDS011;2159;50.906;7.152;2022-12-18T08:08:50;10.37;;;6.50;;
4290;SDS011;2159;50.906;7.152;2022-12-18T08:11:18;9.23;;;6.00;;
4290;SDS011;2159;50.906;7.152;2022-12-18T08:13:46;11.43;;;6.00;;
4290;SDS011;2159;50.906;7.152;2022-12-18T08:16:14;11.00;;;6.90;;
4290;SDS011;2159;50.906;7.152;2022-12-18T08:18:42;13.03;;;7.03;;
4290;SDS011;2159;50.906;7.152;2022-12-18T08:21:10;10.13;;;6.93;;
4290;SDS011;2159;50.906;7.152;2022-12-18T08:23:39;12.07;;;6.50;;
4290;SDS011;2159;50.906;7.152;2022-12-18T08:26:08;10.53;;;6.53;;
4290;SDS011;2159;50.906;7.152;2022-12-18T08:28:36;12.07;;;6.80;;
4290;SDS011;2159;50.906;7.152;2022-12-18T08:31:04;11.23;;;6.70;;
4290;SDS011;2159;50.906;7.152;2022-12-18T08:33:31;11.93;;;7.50;;
4290;SDS011;2159;50.906;7.152;2022-12-18T08:35:59;12.40;;;6.93;;
4290;SDS011;2159;50.906;7.152;2022-12-18T08:38:27;9.77;;;6.57;;
4290;SDS011;2159;50.906;7.152;2022-12-18T08:40:59;12.23;;;7.40;;
4290;SDS011;2159;50.906;7.152;2022-12-18T08:43:27;12.10;;;7.97;;
4290;SDS011;2159;50.906;7.152;2022-12-18T08:46:16;12.87;;;7.50;;
4290;SDS011;2159;50.906;7.152;2022-12-18T08:48:44;13.93;;;8.03;;
4290;SDS011;2159;50.906;7.152;2022-12-18T08:51:12;13.90;;;8.00;;
4290;SDS011;2159;50.906;7.152;2022-12-18T08:53:40;15.77;;;9.50;;
4290;SDS011;2159;50.906;7.152;2022-12-18T08:56:09;14.67;;;8.83;;
4290;SDS011;2159;50.906;7.152;2022-12-18T08:58:36;12.73;;;7.80;;
4290;SDS011;2159;50.906;7.152;2022-12-18T09:01:04;13.33;;;8.20;;
4290;SDS011;2159;50.906;7.152;2022-12-18T09:03:32;11.20;;;7.13;;
4290;SDS011;2159;50.906;7.152;2022-12-18T09:06:00;11.00;;;7.13;;
4290;SDS011;2159;50.906;7.152;2022-12-18T09:08:27;11.90;;;7.60;;
4290;SDS011;2159;50.906;7.152;2022-12-18T09:10:55;12.57;;;7.50;;
4290;SDS011;2159;50.906;7.152;2022-12-18T09:13:24;12.07;;;7.17;;
4290;SDS011;2159;50.906;7.152;2022-12-18T09:15:52;12.00;;;7.30;;
4290;SDS011;2159;50.906;7.152;2022-12-18T09:18:20;12.47;;;7.57;;
4290;SDS011;2159;50.906;7.152;2022-12-18T09:20:48;12.20;;;8.00;;
4290;SDS011;2159;50.906;7.152;2022-12-18T09:23:16;16.70;;;10.40;;
4290;SDS011;2159;50.906;7.152;2022-12-18T09:25:43;12.90;;;8.57;;
4290;SDS011;2159;50.906;7.152;2022-12-18T09:28:11;15.20;;;9.90;;
4290;SDS011;2159;50.906;7.152;2022-12-18T09:30:44;13.67;;;8.23;;
4290;SDS011;2159;50.906;7.152;2022-12-18T09:33:12;15.50;;;8.90;;
4290;SDS011;2159;50.906;7.152;2022-12-18T09:35:41;10.20;;;6.77;;
4290;SDS011;2159;50.906;7.152;2022-12-18T09:38:09;12.23;;;7.60;;
4290;SDS011;2159;50.906;7.152;2022-12-18T09:40:39;12.00;;;8.03;;
4290;SDS011;2159;50.906;7.152;2022-12-18T09:43:09;12.83;;;7.90;;
4290;SDS011;2159;50.906;7.152;2022-12-18T09:45:42;9.10;;;6.97;;
4290;SDS011;2159;50.906;7.152;2022-12-18T09:48:14;10.37;;;7.10;;
4290;SDS011;2159;50.906;7.152;2022-12-18T09:50:43;11.10;;;7.47;;
4290;SDS011;2159;50.906;7.152;2022-12-18T09:53:12;10.70;;;7.27;;
4290;SDS011;2159;50.906;7.152;2022-12-18T09:55:42;14.30;;;7.53;;
4290;SDS011;2159;50.906;7.152;2022-12-18T09:58:13;10.27;;;7.53;;
4290;SDS011;2159;50.906;7.152;2022-12-18T10:00:42;11.57;;;7.57;;
4290;SDS011;2159;50.906;7.152;2022-12-18T10:03:11;12.77;;;7.73;;
4290;SDS011;2159;50.906;7.152;2022-12-18T10:05:42;10.43;;;7.30;;
4290;SDS011;2159;50.906;7.152;2022-12-18T10:08:13;12.70;;;7.70;;
4290;SDS011;2159;50.906;7.152;2022-12-18T10:10:45;14.23;;;8.20;;
4290;SDS011;2159;50.906;7.152;2022-12-18T10:13:16;12.77;;;8.17;;
4290;SDS011;2159;50.906;7.152;2022-12-18T10:15:54;14.93;;;8.27;;
4290;SDS011;2159;50.906;7.152;2022-12-18T10:18:27;12.47;;;7.50;;
4290;SDS011;2159;50.906;7.152;2022-12-18T10:21:03;12.47;;;7.87;;
4290;SDS011;2159;50.906;7.152;2022-12-18T10:23:33;13.30;;;7.90;;
4290;SDS011;2159;50.906;7.152;2022-12-18T10:26:02;12.30;;;7.97;;
4290;SDS011;2159;50.906;7.152;2022-12-18T10:28:30;11.60;;;7.33;;
4290;SDS011;2159;50.906;7.152;2022-12-18T10:30:57;16.90;;;8.10;;
4290;SDS011;2159;50.906;7.152;2022-12-18T10:33:28;12.03;;;7.17;;
4290;SDS011;2159;50.906;7.152;2022-12-18T10:35:55;11.30;;;6.93;;
4290;SDS011;2159;50.906;7.152;2022-12-18T10:38:26;20.00;;;12.10;;
4290;SDS011;2159;50.906;7.152;2022-12-18T10:40:54;14.73;;;8.10;;
4290;SDS011;2159;50.906;7.152;2022-12-18T10:43:23;15.47;;;8.03;;
4290;SDS011;2159;50.906;7.152;2022-12-18T10:45:58;11.60;;;7.90;;
4290;SDS011;2159;50.906;7.152;2022-12-18T10:48:26;10.97;;;7.03;;
4290;SDS011;2159;50.906;7.152;2022-12-18T10:50:54;11.03;;;7.20;;
4290;SDS011;2159;50.906;7.152;2022-12-18T10:53:40;13.03;;;7.70;;
4290;SDS011;2159;50.906;7.152;2022-12-18T10:56:08;10.67;;;7.40;;
4290;SDS011;2159;50.906;7.152;2022-12-18T10:58:37;10.90;;;6.87;;
4290;SDS011;2159;50.906;7.152;2022-12-18T11:01:09;10.50;;;7.50;;
4290;SDS011;2159;50.906;7.152;2022-12-18T11:03:38;13.33;;;7.57;;
4290;SDS011;2159;50.906;7.152;2022-12-18T11:06:08;12.70;;;7.57;;
4290;SDS011;2159;50.906;7.152;2022-12-18T11:08:36;9.33;;;6.80;;
4290;SDS011;2159;50.906;7.152;2022-12-18T11:11:15;12.10;;;7.40;;
4290;SDS011;2159;50.906;7.152;2022-12-18T11:13:48;11.80;;;7.13;;
4290;SDS011;2159;50.906;7.152;2022-12-18T11:16:19;12.20;;;7.60;;
4290;SDS011;2159;50.906;7.152;2022-12-18T11:18:47;14.53;;;7.80;;
4290;SDS011;2159;50.906;7.152;2022-12-18T11:21:14;13.20;;;8.03;;
4290;SDS011;2159;50.906;7.152;2022-12-18T11:23:45;15.57;;;7.87;;
4290;SDS011;2159;50.906;7.152;2022-12-18T11:26:15;14.33;;;7.80;;
4290;SDS011;2159;50.906;7.152;2022-12-18T11:28:43;8.03;;;5.33;;
4290;SDS011;2159;50.906;7.152;2022-12-18T11:31:19;13.93;;;7.60;;
4290;SDS011;2159;50.906;7.152;2022-12-18T11:33:49;13.13;;;7.80;;
4290;SDS011;2159;50.906;7.152;2022-12-18T11:36:40;15.40;;;8.73;;
4290;SDS011;2159;50.906;7.152;2022-12-18T11:39:10;10.40;;;6.07;;
4290;SDS011;2159;50.906;7.152;2022-12-18T11:41:43;13.20;;;7.53;;
4290;SDS011;2159;50.906;7.152;2022-12-18T11:44:33;11.03;;;7.60;;
4290;SDS011;2159;50.906;7.152;2022-12-18T11:47:03;16.57;;;8.00;;
4290;SDS011;2159;50.906;7.152;2022-12-18T11:49:33;12.70;;;7.93;;
4290;SDS011;2159;50.906;7.152;2022-12-18T11:52:03;12.47;;;7.90;;
4290;SDS011;2159;50.906;7.152;2022-12-18T11:54:31;12.37;;;8.10;;
4290;SDS011;2159;50.906;7.152;2022-12-18T11:57:02;13.70;;;7.83;;
4290;SDS011;2159;50.906;7.152;2022-12-18T11:59:32;16.40;;;8.00;;
4290;SDS011;2159;50.906;7.152;2022-12-18T12:02:04;15.17;;;8.80;;
4290;SDS011;2159;50.906;7.152;2022-12-18T12:04:58;12.80;;;8.43;;
4290;SDS011;2159;50.906;7.152;2022-12-18T12:07:34;15.80;;;9.03;;
4290;SDS011;2159;50.906;7.152;2022-12-18T12:10:05;12.93;;;8.50;;
4290;SDS011;2159;50.906;7.152;2022-12-18T12:12:38;14.97;;;8.50;;
4290;SDS011;2159;50.906;7.152;2022-12-18T12:15:21;17.27;;;9.37;;
4290;SDS011;2159;50.906;7.152;2022-12-18T12:17:51;14.93;;;8.53;;
4290;SDS011;2159;50.906;7.152;2022-12-18T12:20:21;12.90;;;8.60;;
4290;SDS011;2159;50.906;7.152;2022-12-18T12:22:52;16.33;;;9.10;;
4290;SDS011;2159;50.906;7.152;2022-12-18T12:25:27;18.17;;;10.60;;
4290;SDS011;2159;50.906;7.152;2022-12-18T12:28:00;16.40;;;9.33;;
4290;SDS011;2159;50.906;7.152;2022-12-18T12:30:33;17.10;;;9.23;;
4290;SDS011;2159;50.906;7.152;2022-12-18T12:33:11;17.90;;;9.80;;
4290;SDS011;2159;50.906;7.152;2022-12-18T12:35:44;19.93;;;12.27;;
4290;SDS011;2159;50.906;7.152;2022-12-18T12:38:14;22.17;;;12.57;;
4290;SDS011;2159;50.906;7.152;2022-12-18T12:40:44;17.60;;;9.30;;
4290;SDS011;2159;50.906;7.152;2022-12-18T12:43:28;19.33;;;9.87;;
4290;SDS011;2159;50.906;7.152;2022-12-18T12:45:58;13.77;;;9.20;;
4290;SDS011;2159;50.906;7.152;2022-12-18T12:48:35;18.53;;;10.93;;
4290;SDS011;2159;50.906;7.152;2022-12-18T12:51:08;18.17;;;10.43;;
4290;SDS011;2159;50.906;7.152;2022-12-18T12:53:37;20.20;;;10.90;;
4290;SDS011;2159;50.906;7.152;2022-12-18T12:56:06;20.33;;;10.53;;
4290;SDS011;2159;50.906;7.152;2022-12-18T12:58:38;16.63;;;10.57;;
4290;SDS011;2159;50.906;7.152;2022-12-18T13:01:10;21.90;;;10.47;;
4290;SDS011;2159;50.906;7.152;2022-12-18T13:03:52;19.47;;;10.93;;
4290;SDS011;2159;50.906;7.152;2022-12-18T13:06:23;19.73;;;10.97;;
4290;SDS011;2159;50.906;7.152;2022-12-18T13:08:55;17.30;;;10.23;;
4290;SDS011;2159;50.906;7.152;2022-12-18T13:11:30;19.87;;;10.80;;
4290;SDS011;2159;50.906;7.152;2022-12-18T13:14:28;18.37;;;9.97;;
4290;SDS011;2159;50.906;7.152;2022-12-18T13:17:15;22.67;;;11.27;;
4290;SDS011;2159;50.906;7.152;2022-12-18T13:19:43;17.23;;;9.60;;
4290;SDS011;2159;50.906;7.152;2022-12-18T13:22:21;20.47;;;10.93;;
4290;SDS011;2159;50.906;7.152;2022-12-18T13:24:49;17.07;;;10.33;;
4290;SDS011;2159;50.906;7.152;2022-12-18T13:30:12;18.33;;;11.20;;
4290;SDS011;2159;50.906;7.152;2022-12-18T13:35:50;16.80;;;10.10;;
4290;SDS011;2159;50.906;7.152;2022-12-18T13:38:20;17.80;;;10.60;;
4290;SDS011;2159;50.906;7.152;2022-12-18T13:40:53;19.10;;;11.30;;
4290;SDS011;2159;50.906;7.152;2022-12-18T13:43:23;22.00;;;12.30;;
4290;SDS011;2159;50.906;7.152;2022-12-18T13:45:59;24.17;;;12.33;;
4290;SDS011;2159;50.906;7.152;2022-12-18T13:48:27;20.77;;;11.50;;
4290;SDS011;2159;50.906;7.152;2022-12-18T13:50:57;16.87;;;10.50;;
4290;SDS011;2159;50.906;7.152;2022-12-18T13:53:26;17.90;;;10.93;;
4290;SDS011;2159;50.906;7.152;2022-12-18T13:55:54;20.37;;;11.50;;
4290;SDS011;2159;50.906;7.152;2022-12-18T13:58:22;23.63;;;12.30;;
4290;SDS011;2159;50.906;7.152;2022-12-18T14:00:49;26.13;;;12.80;;
4290;SDS011;2159;50.906;7.152;2022-12-18T14:03:19;21.93;;;11.77;;
4290;SDS011;2159;50.906;7.152;2022-12-18T14:05:52;19.73;;;10.73;;
4290;SDS011;2159;50.906;7.152;2022-12-18T14:08:21;21.20;;;10.63;;
4290;SDS011;2159;50.906;7.152;2022-12-18T14:10:52;20.00;;;10.87;;
4290;SDS011;2159;50.906;7.152;2022-12-18T14:13:22;17.27;;;8.70;;
4290;SDS011;2159;50.906;7.152;2022-12-18T14:15:50;17.27;;;11.20;;
4290;SDS011;2159;50.906;7.152;2022-12-18T14:18:22;20.57;;;11.80;;
4290;SDS011;2159;50.906;7.152;2022-12-18T14:20:50;20.30;;;12.17;;
4290;SDS011;2159;50.906;7.152;2022-12-18T14:23:27;22.20;;;11.33;;
4290;SDS011;2159;50.906;7.152;2022-12-18T14:25:54;20.83;;;12.10;;
4290;SDS011;2159;50.906;7.152;2022-12-18T14:28:29;21.13;;;11.90;;
4290;SDS011;2159;50.906;7.152;2022-12-18T14:30:56;20.20;;;12.20;;
4290;SDS011;2159;50.906;7.152;2022-12-18T14:33:24;22.40;;;12.27;;
4290;SDS011;2159;50.906;7.152;2022-12-18T14:35:53;22.20;;;11.63;;
4290;SDS011;2159;50.906;7.152;2022-12-18T14:38:22;20.67;;;11.20;;
4290;SDS011;2159;50.906;7.152;2022-12-18T14:40:55;20.20;;;11.30;;
4290;SDS011;2159;50.906;7.152;2022-12-18T14:43:26;22.97;;;13.30;;
4290;SDS011;2159;50.906;7.152;2022-12-18T14:45:53;23.93;;;13.40;;
4290;SDS011;2159;50.906;7.152;2022-12-18T14:48:22;24.70;;;12.90;;
4290;SDS011;2159;50.906;7.152;2022-12-18T14:50:58;19.97;;;12.00;;
4290;SDS011;2159;50.906;7.152;2022-12-18T14:53:33;20.07;;;10.97;;
4290;SDS011;2159;50.906;7.152;2022-12-18T14:56:03;21.03;;;11.27;;
4290;SDS011;2159;50.906;7.152;2022-12-18T14:58:31;21.93;;;11.83;;
4290;SDS011;2159;50.906;7.152;2022-12-18T15:00:58;20.90;;;11.63;;
4290;SDS011;2159;50.906;7.152;2022-12-18T15:03:26;22.30;;;12.10;;
4290;SDS011;2159;50.906;7.152;2022-12-18T15:05:54;23.03;;;12.43;;
4290;SDS011;2159;50.906;7.152;2022-12-18T15:08:29;22.97;;;12.00;;
4290;SDS011;2159;50.906;7.152;2022-12-18T15:10:58;21.63;;;12.17;;
4290;SDS011;2159;50.906;7.152;2022-12-18T15:13:28;22.43;;;12.27;;
4290;SDS011;2159;50.906;7.152;2022-12-18T15:15:55;24.70;;;13.13;;
4290;SDS011;2159;50.906;7.152;2022-12-18T15:18:25;26.47;;;13.43;;
4290;SDS011;2159;50.906;7.152;2022-12-18T15:20:55;20.07;;;12.00;;
4290;SDS011;2159;50.906;7.152;2022-12-18T15:23:25;24.87;;;13.40;;
4290;SDS011;2159;50.906;7.152;2022-12-18T15:25:55;23.00;;;13.20;;